createdAt,value
2023-01-05T00:01:50.270Z,100.00
2023-01-05T00:04:17.084Z,100.00
2023-01-05T00:06:43.941Z,100.00
2023-01-05T00:09:16.363Z,100.00
2023-01-05T00:12:01.606Z,100.00
2023-01-05T00:14:49.481Z,100.00
2023-01-05T00:17:37.143Z,100.00
2023-01-05T00:20:24.489Z,100.00
2023-01-05T00:22:53.193Z,99.56
2023-01-05T00:25:25.404Z,99.24
2023-01-05T00:27:53.837Z,98.16
2023-01-05T00:30:26.554Z,98.03
2023-01-05T00:32:53.015Z,97.40
2023-01-05T00:35:19.747Z,97.06
2023-01-05T00:37:46.253Z,97.06
2023-01-05T00:40:16.866Z,96.81
2023-01-05T00:42:43.763Z,96.62
2023-01-05T00:45:13.653Z,96.55
2023-01-05T00:47:40.488Z,96.83
2023-01-05T00:50:08.058Z,96.10
2023-01-05T00:52:34.536Z,95.62
2023-01-05T00:55:01.018Z,95.92
2023-01-05T00:57:27.784Z,94.76
2023-01-05T00:59:54.360Z,95.34
2023-01-05T01:02:23.532Z,95.11
2023-01-05T01:04:50.224Z,95.35
2023-01-05T01:07:16.767Z,95.95
2023-01-05T01:09:43.279Z,95.39
2023-01-05T01:12:09.804Z,95.74
2023-01-05T01:14:36.806Z,95.25
2023-01-05T01:17:03.415Z,95.48
2023-01-05T01:19:30.049Z,94.14
2023-01-05T01:21:56.656Z,93.86
2023-01-05T01:24:28.062Z,93.99
2023-01-05T01:26:55.648Z,93.69
2023-01-05T01:29:23.512Z,93.53
2023-01-05T01:31:52.450Z,93.81
2023-01-05T01:34:19.442Z,93.61
2023-01-05T01:36:46.078Z,93.78
2023-01-05T01:39:13.734Z,93.27
2023-01-05T01:41:40.530Z,92.93
2023-01-05T01:44:44.488Z,92.41
2023-01-05T01:47:20.516Z,92.13
2023-01-05T01:49:47.854Z,91.77
2023-01-05T01:52:15.050Z,90.67
2023-01-05T01:54:41.661Z,91.17
2023-01-05T01:57:11.698Z,90.26
2023-01-05T01:59:38.601Z,90.35
2023-01-05T02:02:07.891Z,89.79
2023-01-05T02:04:37.469Z,89.78
2023-01-05T02:07:05.775Z,89.58
2023-01-05T02:09:32.658Z,89.50
2023-01-05T02:12:15.432Z,89.57
2023-01-05T02:14:49.498Z,88.97
2023-01-05T02:17:26.263Z,88.56
2023-01-05T02:19:55.752Z,89.53
2023-01-05T02:22:53.336Z,90.37
2023-01-05T02:25:28.965Z,90.04
2023-01-05T02:28:17.335Z,90.37
2023-01-05T02:31:25.015Z,89.63
2023-01-05T02:34:04.949Z,89.84
2023-01-05T02:36:42.157Z,89.15
2023-01-05T02:39:18.016Z,88.89
2023-01-05T02:42:05.500Z,88.65
2023-01-05T02:44:33.732Z,89.04
2023-01-05T02:47:01.310Z,89.09
2023-01-05T02:49:31.103Z,89.34
2023-01-05T02:52:01.675Z,89.73
2023-01-05T02:54:53.731Z,89.88
2023-01-05T02:57:46.327Z,90.68
2023-01-05T03:00:18.947Z,90.80
2023-01-05T03:02:49.383Z,91.54
2023-01-05T03:05:23.169Z,91.07
2023-01-05T03:07:51.540Z,91.14
2023-01-05T03:10:56.719Z,90.45
2023-01-05T03:13:42.009Z,91.30
2023-01-05T03:16:18.647Z,91.52
2023-01-05T03:19:06.061Z,90.65
2023-01-05T03:21:51.084Z,90.58
2023-01-05T03:24:36.910Z,90.99
2023-01-05T03:27:24.663Z,91.67
2023-01-05T03:30:11.839Z,92.30
2023-01-05T03:33:05.966Z,92.29
2023-01-05T03:35:39.736Z,93.25
2023-01-05T03:38:35.417Z,93.54
2023-01-05T03:41:05.547Z,94.22
2023-01-05T03:43:36.678Z,94.28
2023-01-05T03:46:11.309Z,94.29
2023-01-05T03:48:37.824Z,94.33
2023-01-05T03:51:04.897Z,94.28
2023-01-05T03:53:31.354Z,94.07
2023-01-05T03:55:57.817Z,93.88
2023-01-05T03:58:24.482Z,92.95
2023-01-05T04:00:51.132Z,92.98
2023-01-05T04:03:17.610Z,92.90
2023-01-05T04:05:44.365Z,92.55
2023-01-05T04:08:10.803Z,93.68
2023-01-05T04:10:37.285Z,93.01
2023-01-05T04:13:03.970Z,93.26
2023-01-05T04:15:30.442Z,93.43
2023-01-05T04:17:56.973Z,93.55
2023-01-05T04:20:25.846Z,93.35
2023-01-05T04:22:52.341Z,93.51
2023-01-05T04:25:18.842Z,94.16
2023-01-05T04:27:45.282Z,94.75
2023-01-05T04:30:12.067Z,96.15
2023-01-05T04:32:38.585Z,97.44
2023-01-05T04:35:11.271Z,98.35
2023-01-05T04:37:38.432Z,99.09
2023-01-05T04:40:05.619Z,100.00
2023-01-05T04:42:32.079Z,100.00
2023-01-05T04:44:58.534Z,100.00
2023-01-05T04:47:24.983Z,100.00
2023-01-05T04:49:51.416Z,100.00
2023-01-05T04:52:17.865Z,100.00
2023-01-05T04:54:44.337Z,100.00
2023-01-05T04:57:11.016Z,100.00
2023-01-05T04:59:37.466Z,100.00
2023-01-05T05:02:04.091Z,100.00
2023-01-05T05:04:30.825Z,100.00
2023-01-05T05:06:57.218Z,100.00
2023-01-05T05:09:23.652Z,100.00
2023-01-05T05:11:50.111Z,100.00
2023-01-05T05:14:19.067Z,100.00
2023-01-05T05:16:45.516Z,100.00
2023-01-05T05:19:12.034Z,100.00
2023-01-05T05:21:38.465Z,100.00
2023-01-05T05:24:05.219Z,100.00
2023-01-05T05:26:31.761Z,100.00
2023-01-05T05:28:59.706Z,100.00
2023-01-05T05:31:27.294Z,100.00
2023-01-05T05:33:54.348Z,100.00
2023-01-05T05:36:21.004Z,100.00
2023-01-05T05:38:47.483Z,100.00
2023-01-05T05:41:13.920Z,100.00
2023-01-05T05:43:40.409Z,100.00
2023-01-05T05:46:07.111Z,100.00
2023-01-05T05:48:33.686Z,100.00
2023-01-05T05:51:00.206Z,100.00
2023-01-05T05:53:26.728Z,100.00
2023-01-05T05:55:53.203Z,100.00
2023-01-05T05:58:22.286Z,100.00
2023-01-05T06:00:48.701Z,100.00
2023-01-05T06:03:15.576Z,100.00
2023-01-05T06:05:42.165Z,100.00
2023-01-05T06:08:08.876Z,100.00
2023-01-05T06:10:35.482Z,100.00
2023-01-05T06:13:03.813Z,100.00
2023-01-05T06:15:30.411Z,100.00
2023-01-05T06:17:56.888Z,100.00
2023-01-05T06:20:23.471Z,100.00
2023-01-05T06:22:49.987Z,100.00
2023-01-05T06:25:16.603Z,100.00
2023-01-05T06:27:43.168Z,100.00
2023-01-05T06:30:10.299Z,100.00
2023-01-05T06:32:36.851Z,100.00
2023-01-05T06:35:03.511Z,100.00
2023-01-05T06:37:30.135Z,100.00
2023-01-05T06:39:56.683Z,100.00
2023-01-05T06:42:23.962Z,100.00
2023-01-05T06:44:50.734Z,100.00
2023-01-05T06:47:17.636Z,100.00
2023-01-05T06:49:44.381Z,100.00
2023-01-05T06:52:16.318Z,100.00
2023-01-05T06:54:46.056Z,100.00
2023-01-05T06:57:12.563Z,100.00
2023-01-05T06:59:39.551Z,100.00
2023-01-05T07:02:07.121Z,100.00
2023-01-05T07:04:33.789Z,100.00
2023-01-05T07:07:00.720Z,100.00
2023-01-05T07:09:27.320Z,100.00
2023-01-05T07:11:53.900Z,100.00
2023-01-05T07:14:20.585Z,100.00
2023-01-05T07:16:47.347Z,100.00
2023-01-05T07:19:14.064Z,100.00
2023-01-05T07:21:40.700Z,100.00
2023-01-05T07:24:10.004Z,100.00
2023-01-05T07:26:36.734Z,100.00
2023-01-05T07:29:07.732Z,100.00
2023-01-05T07:31:34.328Z,100.00
2023-01-05T07:34:02.037Z,100.00
2023-01-05T07:36:28.707Z,100.00
2023-01-05T07:38:59.569Z,100.00
2023-01-05T07:41:31.574Z,100.00
2023-01-05T07:43:58.167Z,100.00
2023-01-05T07:46:24.964Z,100.00
2023-01-05T07:48:59.431Z,100.00
2023-01-05T07:51:26.089Z,100.00
2023-01-05T07:53:53.768Z,100.00
2023-01-05T07:56:20.476Z,100.00
2023-01-05T07:58:47.161Z,100.00
2023-01-05T08:01:20.622Z,100.00
2023-01-05T08:03:47.710Z,100.00
2023-01-05T08:06:17.860Z,100.00
2023-01-05T08:08:45.192Z,100.00
2023-01-05T08:11:18.503Z,100.00
2023-01-05T08:14:00.881Z,100.00
2023-01-05T08:16:34.666Z,100.00
2023-01-05T08:19:01.687Z,100.00
2023-01-05T08:21:29.448Z,100.00
2023-01-05T08:23:57.902Z,100.00
2023-01-05T08:26:24.941Z,100.00
2023-01-05T08:28:59.123Z,100.00
2023-01-05T08:31:28.097Z,100.00
2023-01-05T08:33:56.135Z,100.00
2023-01-05T08:36:22.958Z,100.00
2023-01-05T08:38:53.280Z,100.00
2023-01-05T08:41:28.645Z,99.81
2023-01-05T08:43:57.565Z,100.00
2023-01-05T08:46:26.562Z,99.38
2023-01-05T08:48:59.953Z,98.80
2023-01-05T08:51:27.299Z,99.09
2023-01-05T08:53:54.133Z,99.14
2023-01-05T08:56:31.682Z,98.81
2023-01-05T08:59:03.784Z,97.89
2023-01-05T09:01:31.343Z,97.61
2023-01-05T09:03:57.965Z,96.96
2023-01-05T09:06:24.598Z,97.43
2023-01-05T09:08:51.154Z,97.65
2023-01-05T09:11:29.124Z,97.34
2023-01-05T09:13:58.174Z,98.40
2023-01-05T09:16:57.277Z,98.10
2023-01-05T09:19:16.098Z,98.31
2023-01-05T09:21:42.772Z,98.06
2023-01-05T09:24:13.097Z,97.33
2023-01-05T09:26:50.476Z,95.31
2023-01-05T09:29:17.263Z,94.44
2023-01-05T09:31:44.173Z,93.04
2023-01-05T09:34:11.139Z,92.56
2023-01-05T09:36:39.079Z,91.90
2023-01-05T09:39:09.077Z,91.24
2023-01-05T09:41:47.812Z,92.70
2023-01-05T09:44:31.080Z,93.21
2023-01-05T09:47:14.485Z,93.18
2023-01-05T09:49:50.876Z,92.75
2023-01-05T09:52:21.328Z,93.19
2023-01-05T09:54:48.440Z,93.48
2023-01-05T09:57:26.784Z,93.96
2023-01-05T10:00:06.552Z,94.00
2023-01-05T10:02:58.336Z,94.27
2023-01-05T10:05:26.765Z,94.43
2023-01-05T10:08:11.656Z,95.37
2023-01-05T10:10:47.135Z,94.29
2023-01-05T10:13:28.525Z,94.24
2023-01-05T10:15:55.884Z,94.50
2023-01-05T10:18:25.754Z,94.35
2023-01-05T10:21:03.462Z,94.97
2023-01-05T10:23:49.118Z,95.46
2023-01-05T10:26:58.311Z,94.85
2023-01-05T10:29:27.550Z,95.01
2023-01-05T10:32:00.315Z,95.39
2023-01-05T10:34:39.113Z,95.23
2023-01-05T10:37:43.185Z,95.33
2023-01-05T10:40:43.697Z,95.72
2023-01-05T10:43:21.777Z,96.28
2023-01-05T10:46:19.864Z,96.45
2023-01-05T10:48:38.419Z,96.24
2023-01-05T10:51:09.615Z,95.39
2023-01-05T10:53:39.334Z,93.42
2023-01-05T10:56:13.678Z,93.36
2023-01-05T10:58:43.362Z,93.12
2023-01-05T11:01:26.955Z,94.09
2023-01-05T11:07:05.779Z,93.04
2023-01-05T11:09:32.634Z,92.77
2023-01-05T11:12:02.620Z,91.53
2023-01-05T11:14:41.439Z,93.82
2023-01-05T11:17:12.728Z,94.54
2023-01-05T11:19:47.558Z,94.14
2023-01-05T11:22:37.760Z,93.50
2023-01-05T11:25:15.199Z,94.06
2023-01-05T11:27:41.729Z,95.07
2023-01-05T11:30:20.725Z,95.32
2023-01-05T11:32:48.704Z,95.73
2023-01-05T11:35:19.790Z,95.37
2023-01-05T11:37:46.475Z,96.79
2023-01-05T11:40:18.760Z,95.88
2023-01-05T11:42:46.341Z,95.93
2023-01-05T11:45:20.893Z,95.45
2023-01-05T11:47:50.772Z,95.77
2023-01-05T11:50:21.855Z,96.12
2023-01-05T11:52:51.627Z,96.13
2023-01-05T11:55:24.192Z,95.92
2023-01-05T11:57:59.435Z,98.39
2023-01-05T12:00:28.978Z,100.00
2023-01-05T12:03:18.658Z,100.00
2023-01-05T12:05:55.758Z,100.00
2023-01-05T12:08:34.040Z,100.00
2023-01-05T12:11:22.653Z,100.00
2023-01-05T12:14:18.835Z,100.00
2023-01-05T12:16:58.186Z,100.00
2023-01-05T12:19:35.520Z,100.00
2023-01-05T12:22:28.509Z,100.00
2023-01-05T12:25:23.199Z,100.00
2023-01-05T12:28:05.395Z,100.00
2023-01-05T12:34:06.026Z,100.00
2023-01-05T12:36:48.475Z,100.00
2023-01-05T12:39:34.005Z,100.00
2023-01-05T12:42:12.620Z,100.00
2023-01-05T12:44:48.793Z,100.00
2023-01-05T12:47:41.721Z,100.00
2023-01-05T12:50:23.368Z,100.00
2023-01-05T12:52:55.130Z,100.00
2023-01-05T12:55:26.563Z,100.00
2023-01-05T12:58:01.064Z,99.90
2023-01-05T13:00:35.088Z,100.00
2023-01-05T13:03:04.284Z,100.00
2023-01-05T13:05:46.594Z,100.00
2023-01-05T13:08:20.736Z,100.00
2023-01-05T13:10:57.002Z,100.00
2023-01-05T13:13:34.541Z,100.00
2023-01-05T13:16:17.755Z,100.00
2023-01-05T13:18:52.420Z,100.00
2023-01-05T13:21:21.314Z,100.00
2023-01-05T13:23:54.210Z,100.00
2023-01-05T13:26:24.910Z,100.00
2023-01-05T13:28:55.655Z,100.00
2023-01-05T13:31:54.729Z,100.00
2023-01-05T13:34:27.017Z,100.00
2023-01-05T13:37:30.447Z,100.00
2023-01-05T13:40:20.836Z,100.00
2023-01-05T13:43:05.777Z,100.00
2023-01-05T13:46:15.937Z,100.00
2023-01-05T13:49:04.163Z,100.00
2023-01-05T13:51:34.423Z,100.00
2023-01-05T13:54:13.259Z,100.00
2023-01-05T13:56:40.552Z,100.00
2023-01-05T13:59:35.512Z,100.00
2023-01-05T14:02:26.119Z,100.00
2023-01-05T14:04:52.914Z,100.00
2023-01-05T14:07:19.962Z,100.00
2023-01-05T14:09:50.233Z,100.00
2023-01-05T14:12:16.781Z,100.00
2023-01-05T14:15:24.746Z,100.00
2023-01-05T14:18:02.443Z,100.00
2023-01-05T14:20:41.052Z,100.00
2023-01-05T14:23:23.116Z,100.00
2023-01-05T14:25:55.796Z,100.00
2023-01-05T14:28:26.775Z,100.00
2023-01-05T14:31:16.992Z,100.00
2023-01-05T14:33:53.936Z,100.00
2023-01-05T14:36:32.057Z,100.00
2023-01-05T14:38:59.965Z,100.00
2023-01-05T14:41:28.910Z,100.00
2023-01-05T14:44:05.957Z,100.00
2023-01-05T14:46:48.452Z,100.00
2023-01-05T14:49:35.415Z,100.00
2023-01-05T14:52:04.831Z,100.00
2023-01-05T14:55:29.949Z,100.00
2023-01-05T14:58:35.546Z,100.00
2023-01-05T15:01:26.047Z,100.00
2023-01-05T15:04:07.343Z,100.00
2023-01-05T15:07:11.599Z,100.00
2023-01-05T15:09:50.375Z,100.00
2023-01-05T15:12:47.688Z,100.00
2023-01-05T15:15:37.535Z,100.00
2023-01-05T15:18:31.042Z,100.00
2023-01-05T15:21:33.672Z,100.00
2023-01-05T15:24:27.884Z,100.00
2023-01-05T15:27:02.136Z,100.00
2023-01-05T15:29:31.707Z,100.00
2023-01-05T15:32:10.423Z,100.00
2023-01-05T15:34:44.619Z,100.00
2023-01-05T15:37:22.155Z,100.00
2023-01-05T15:39:49.813Z,100.00
2023-01-05T15:42:23.701Z,100.00
2023-01-05T15:44:52.970Z,100.00
2023-01-05T15:47:22.067Z,100.00
2023-01-05T15:49:50.664Z,100.00
2023-01-05T15:52:32.209Z,100.00
2023-01-05T15:55:02.309Z,100.00
2023-01-05T15:57:28.916Z,100.00
2023-01-05T15:59:56.306Z,100.00
2023-01-05T16:02:28.486Z,100.00
2023-01-05T16:05:27.806Z,100.00
2023-01-05T16:08:00.934Z,100.00
2023-01-05T16:10:41.652Z,100.00
2023-01-05T16:13:13.912Z,100.00
2023-01-05T16:15:42.272Z,100.00
2023-01-05T16:18:16.153Z,100.00
2023-01-05T16:20:46.919Z,100.00
2023-01-05T16:23:23.382Z,100.00
2023-01-05T16:25:53.397Z,100.00
2023-01-05T16:28:22.193Z,100.00
2023-01-05T16:30:49.859Z,100.00
2023-01-05T16:33:36.618Z,100.00
2023-01-05T16:36:13.508Z,100.00
2023-01-05T16:38:41.507Z,100.00
2023-01-05T16:41:11.082Z,100.00
2023-01-05T16:43:42.019Z,100.00
2023-01-05T16:46:20.172Z,100.00
2023-01-05T16:48:50.041Z,100.00
2023-01-05T16:51:22.511Z,100.00
2023-01-05T16:53:53.282Z,100.00
2023-01-05T16:56:52.492Z,100.00
2023-01-05T16:59:34.442Z,100.00
2023-01-05T17:02:01.697Z,100.00
2023-01-05T17:04:28.406Z,100.00
2023-01-05T17:06:58.016Z,100.00
2023-01-05T17:09:31.653Z,100.00
2023-01-05T17:11:58.722Z,100.00
2023-01-05T17:14:28.066Z,100.00
2023-01-05T17:16:55.460Z,100.00
2023-01-05T17:19:22.756Z,100.00
2023-01-05T17:21:56.011Z,100.00
2023-01-05T17:24:23.420Z,100.00
2023-01-05T17:26:50.204Z,100.00
2023-01-05T17:29:23.193Z,100.00
2023-01-05T17:31:50.369Z,100.00
2023-01-05T17:34:17.509Z,100.00
2023-01-05T17:36:45.446Z,100.00
2023-01-05T17:39:17.371Z,100.00
2023-01-05T17:41:44.695Z,100.00
2023-01-05T17:44:11.402Z,100.00
2023-01-05T17:46:42.533Z,100.00
2023-01-05T17:49:15.463Z,100.00
2023-01-05T17:51:42.237Z,100.00
2023-01-05T17:54:09.065Z,100.00
2023-01-05T17:56:35.791Z,100.00
2023-01-05T17:59:03.537Z,100.00
2023-01-05T18:01:30.720Z,100.00
2023-01-05T18:03:57.260Z,100.00
2023-01-05T18:06:23.861Z,100.00
2023-01-05T18:08:50.490Z,100.00
2023-01-05T18:11:17.854Z,100.00
2023-01-05T18:13:44.920Z,100.00
2023-01-05T18:16:13.001Z,100.00
2023-01-05T18:18:39.591Z,100.00
2023-01-05T18:21:06.966Z,100.00
2023-01-05T18:23:33.835Z,100.00
2023-01-05T18:26:07.537Z,100.00
2023-01-05T18:28:34.739Z,100.00
2023-01-05T18:31:01.530Z,100.00
2023-01-05T18:33:28.558Z,100.00
2023-01-05T18:35:58.514Z,100.00
2023-01-05T18:38:25.262Z,100.00
2023-01-05T18:40:51.875Z,100.00
2023-01-05T18:43:18.372Z,100.00
2023-01-05T18:45:45.372Z,100.00
2023-01-05T18:48:12.046Z,100.00
2023-01-05T18:50:43.260Z,100.00
2023-01-05T18:53:10.046Z,100.00
2023-01-05T18:55:40.331Z,100.00
2023-01-05T18:58:06.895Z,100.00
2023-01-05T19:00:33.543Z,100.00
2023-01-05T19:03:00.286Z,100.00
2023-01-05T19:05:26.959Z,100.00
2023-01-05T19:07:53.587Z,100.00
2023-01-05T19:10:20.588Z,100.00
2023-01-05T19:12:47.309Z,100.00
2023-01-05T19:15:14.072Z,100.00
2023-01-05T19:17:40.745Z,100.00
2023-01-05T19:20:08.115Z,100.00
2023-01-05T19:22:35.043Z,100.00
2023-01-05T19:25:01.685Z,100.00
2023-01-05T19:27:28.394Z,100.00
2023-01-05T19:29:55.077Z,100.00
2023-01-05T19:32:21.664Z,100.00
2023-01-05T19:34:48.355Z,100.00
2023-01-05T19:37:14.933Z,100.00
2023-01-05T19:39:41.545Z,100.00
2023-01-05T19:42:08.447Z,100.00
2023-01-05T19:44:35.114Z,100.00
2023-01-05T19:47:01.755Z,100.00
2023-01-05T19:49:29.353Z,100.00
2023-01-05T19:51:56.229Z,100.00
2023-01-05T19:54:25.378Z,100.00
2023-01-05T19:56:53.176Z,100.00
2023-01-05T19:59:24.618Z,100.00
2023-01-05T20:01:51.403Z,100.00
2023-01-05T20:04:18.255Z,100.00
2023-01-05T20:06:46.320Z,100.00
2023-01-05T20:09:16.385Z,100.00
2023-01-05T20:11:45.831Z,100.00
2023-01-05T20:14:15.077Z,100.00
2023-01-05T20:16:44.676Z,100.00
2023-01-05T20:19:11.871Z,100.00
2023-01-05T20:21:38.775Z,100.00
2023-01-05T20:24:11.433Z,100.00
2023-01-05T20:26:38.713Z,100.00
2023-01-05T20:29:05.364Z,100.00
2023-01-05T20:31:36.684Z,100.00
2023-01-05T20:34:07.787Z,100.00
2023-01-05T20:36:34.793Z,100.00
2023-01-05T20:39:06.185Z,100.00
2023-01-05T20:41:39.088Z,100.00
2023-01-05T20:44:06.869Z,100.00
2023-01-05T20:46:42.730Z,100.00
2023-01-05T20:49:10.013Z,100.00
2023-01-05T20:51:37.000Z,100.00
2023-01-05T20:54:06.120Z,100.00
2023-01-05T20:56:38.622Z,100.00
2023-01-05T20:59:13.349Z,100.00
2023-01-05T21:01:40.229Z,100.00
2023-01-05T21:04:07.693Z,100.00
2023-01-05T21:06:35.233Z,100.00
2023-01-05T21:09:02.503Z,100.00
2023-01-05T21:11:29.929Z,100.00
2023-01-05T21:13:58.225Z,100.00
2023-01-05T21:16:31.197Z,100.00
2023-01-05T21:19:01.114Z,100.00
2023-01-05T21:21:29.693Z,100.00
2023-01-05T21:23:56.348Z,100.00
2023-01-05T21:26:23.540Z,100.00
2023-01-05T21:28:52.114Z,100.00
2023-01-05T21:31:21.772Z,100.00
2023-01-05T21:33:48.699Z,100.00
2023-01-05T21:36:18.775Z,100.00
2023-01-05T21:39:01.712Z,100.00
2023-01-05T21:41:49.548Z,100.00
2023-01-05T21:44:16.656Z,100.00
2023-01-05T21:46:43.475Z,100.00
2023-01-05T21:49:11.380Z,100.00
2023-01-05T21:51:56.841Z,100.00
2023-01-05T21:54:42.568Z,100.00
2023-01-05T21:57:09.242Z,100.00
2023-01-05T21:59:36.209Z,100.00
2023-01-05T22:02:03.187Z,100.00
2023-01-05T22:04:29.828Z,100.00
2023-01-05T22:06:57.281Z,100.00
2023-01-05T22:09:23.979Z,100.00
2023-01-05T22:11:50.659Z,100.00
2023-01-05T22:14:17.442Z,100.00
2023-01-05T22:16:44.288Z,100.00
2023-01-05T22:19:11.209Z,100.00
2023-01-05T22:21:38.288Z,100.00
2023-01-05T22:24:05.586Z,100.00
2023-01-05T22:26:32.264Z,100.00
2023-01-05T22:28:58.972Z,100.00
2023-01-05T22:31:27.989Z,100.00
2023-01-05T22:33:57.697Z,100.00
2023-01-05T22:36:25.892Z,100.00
2023-01-05T22:38:53.638Z,100.00
2023-01-05T22:41:26.465Z,100.00
2023-01-05T22:43:53.110Z,100.00
2023-01-05T22:46:22.082Z,100.00
2023-01-05T22:48:50.887Z,100.00
2023-01-05T22:51:22.694Z,100.00
2023-01-05T22:53:50.486Z,100.00
2023-01-05T22:56:18.885Z,100.00
2023-01-05T22:58:46.145Z,100.00
2023-01-05T23:01:26.457Z,100.00
2023-01-05T23:03:54.386Z,100.00
2023-01-05T23:06:21.831Z,100.00
2023-01-05T23:08:50.003Z,100.00
2023-01-05T23:11:25.117Z,100.00
2023-01-05T23:13:53.114Z,100.00
2023-01-05T23:16:20.968Z,100.00
2023-01-05T23:18:49.807Z,100.00
2023-01-05T23:21:18.746Z,100.00
2023-01-05T23:23:46.041Z,100.00
2023-01-05T23:26:14.940Z,100.00
2023-01-05T23:28:43.412Z,100.00
2023-01-05T23:31:11.694Z,100.00
2023-01-05T23:33:38.335Z,100.00
2023-01-05T23:36:05.835Z,100.00
2023-01-05T23:38:33.486Z,100.00
2023-01-05T23:41:03.723Z,100.00
2023-01-05T23:43:30.285Z,100.00
2023-01-05T23:46:11.330Z,100.00
2023-01-05T23:48:38.803Z,100.00
2023-01-05T23:51:07.854Z,100.00
2023-01-05T23:53:34.620Z,100.00
2023-01-05T23:56:14.768Z,100.00
2023-01-05T23:58:42.424Z,100.00
